createdAt,value
2022-11-23T00:07:31.484Z,0.06
2022-11-23T00:17:35.275Z,0.06
2022-11-23T00:27:38.909Z,-0.05
2022-11-23T00:37:42.484Z,-0.28
2022-11-23T00:47:47.815Z,-0.33
2022-11-23T00:57:51.383Z,-0.30
2022-11-23T01:07:55.612Z,-0.39
2022-11-23T01:18:01.824Z,-0.37
2022-11-23T01:28:07.772Z,-0.26
2022-11-23T01:38:16.685Z,-0.18
2022-11-23T01:48:27.538Z,-0.08
2022-11-23T01:58:35.961Z,0.06
2022-11-23T02:08:42.706Z,0.25
2022-11-23T02:18:50.161Z,0.35
2022-11-23T02:29:24.731Z,0.44
2022-11-23T02:39:37.168Z,0.62
2022-11-23T02:49:41.976Z,0.61
2022-11-23T02:59:45.490Z,0.43
2022-11-23T03:09:49.147Z,0.46
2022-11-23T03:19:55.072Z,0.44
2022-11-23T03:30:00.282Z,0.43
2022-11-23T03:40:06.963Z,0.48
2022-11-23T03:50:30.053Z,0.49
2022-11-23T04:00:34.840Z,0.59
2022-11-23T04:10:41.651Z,0.68
2022-11-23T04:20:52.411Z,0.58
2022-11-23T04:30:58.975Z,0.41
2022-11-23T04:41:06.664Z,0.25
2022-11-23T04:51:14.384Z,0.23
2022-11-23T05:01:19.292Z,0.34
2022-11-23T05:11:55.312Z,0.41
2022-11-23T05:21:59.521Z,0.40
2022-11-23T05:32:04.141Z,0.37
2022-11-23T05:42:08.575Z,0.28
2022-11-23T05:52:15.213Z,0.15
2022-11-23T06:02:20.903Z,0.01
2022-11-23T06:12:30.735Z,-0.15
2022-11-23T06:22:35.341Z,-0.11
2022-11-23T06:32:41.846Z,-0.14
2022-11-23T06:42:46.301Z,-0.20
2022-11-23T06:53:04.630Z,-0.34
2022-11-23T07:03:22.343Z,-0.39
2022-11-23T07:13:30.320Z,-0.34
2022-11-23T07:23:38.890Z,-0.15
2022-11-23T07:33:46.718Z,-0.01
2022-11-23T07:43:51.358Z,0.06
2022-11-23T07:53:56.095Z,0.05
2022-11-23T08:03:59.616Z,-0.02
2022-11-23T08:14:03.166Z,0.12
2022-11-23T08:24:06.890Z,0.29
2022-11-23T08:34:10.686Z,0.45
2022-11-23T08:44:14.414Z,0.49
2022-11-23T08:54:18.160Z,0.54
2022-11-23T09:04:22.762Z,0.66
2022-11-23T09:14:28.281Z,0.70
2022-11-23T09:24:34.676Z,0.79
2022-11-23T09:34:38.739Z,0.96
2022-11-23T09:44:45.393Z,1.04
2022-11-23T09:54:53.841Z,0.98
2022-11-23T10:05:00.659Z,0.97
2022-11-23T10:15:26.937Z,1.01
2022-11-23T10:25:49.450Z,1.14
2022-11-23T10:35:53.147Z,1.30
2022-11-23T10:46:38.726Z,1.48
2022-11-23T10:56:48.312Z,1.63
2022-11-23T11:06:51.975Z,1.43
2022-11-23T11:17:00.839Z,1.28
2022-11-23T11:27:12.654Z,1.32
2022-11-23T11:37:37.049Z,1.15
2022-11-23T11:47:45.704Z,1.01
2022-11-23T11:57:55.143Z,0.99
2022-11-23T12:08:18.423Z,1.14
2022-11-23T12:18:56.952Z,1.32
2022-11-23T12:29:38.096Z,1.17
2022-11-23T12:40:13.790Z,1.41
2022-11-23T12:50:44.330Z,1.43
2022-11-23T13:00:56.891Z,1.34
2022-11-23T13:11:18.988Z,1.40
2022-11-23T13:21:39.520Z,1.44
2022-11-23T13:31:43.200Z,1.22
2022-11-23T13:41:46.764Z,1.10
2022-11-23T13:52:05.886Z,0.96
2022-11-23T14:02:13.915Z,0.83
2022-11-23T14:12:26.595Z,0.74
2022-11-23T14:22:45.952Z,0.69
2022-11-23T14:33:08.523Z,0.64
2022-11-23T14:43:20.730Z,0.58
2022-11-23T14:53:29.135Z,0.57
2022-11-23T15:14:02.442Z,0.17
2022-11-23T15:24:06.297Z,0.10
2022-11-23T15:34:17.604Z,0.07
2022-11-23T15:44:27.308Z,0.22
2022-11-23T15:54:38.829Z,0.16
2022-11-23T16:04:44.401Z,0.10
2022-11-23T16:14:48.246Z,0.19
2022-11-23T16:24:54.794Z,0.23
2022-11-23T16:35:16.145Z,0.37
2022-11-23T16:45:19.809Z,0.42
2022-11-23T16:55:23.478Z,0.45
2022-11-23T17:05:27.019Z,0.53
2022-11-23T17:15:31.240Z,0.53
2022-11-23T17:25:35.905Z,0.46
2022-11-23T17:35:40.653Z,0.41
2022-11-23T17:45:45.168Z,0.31
2022-11-23T17:55:49.227Z,0.32
2022-11-23T18:05:53.101Z,0.34
2022-11-23T18:15:57.106Z,0.26
2022-11-23T18:26:13.693Z,0.14
2022-11-23T18:36:17.720Z,0.18
2022-11-23T18:46:21.568Z,0.19
2022-11-23T18:56:25.341Z,0.30
2022-11-23T19:06:28.956Z,0.32
2022-11-23T19:16:33.045Z,0.33
2022-11-23T19:26:37.222Z,0.35
2022-11-23T19:36:40.937Z,0.45
2022-11-23T19:46:45.220Z,0.51
2022-11-23T19:56:54.549Z,0.50
2022-11-23T20:06:58.328Z,0.47
2022-11-23T20:17:01.916Z,0.52
2022-11-23T20:27:05.647Z,0.56
2022-11-23T20:37:09.508Z,0.53
2022-11-23T20:47:13.154Z,0.59
2022-11-23T20:57:16.857Z,0.59
2022-11-23T21:07:21.424Z,0.67
2022-11-23T21:17:25.060Z,0.66
2022-11-23T21:27:28.590Z,0.74
2022-11-23T21:37:32.193Z,0.63
2022-11-23T21:47:35.928Z,0.77
2022-11-23T21:57:39.634Z,0.72
2022-11-23T22:07:55.108Z,0.69
2022-11-23T22:18:09.639Z,0.66
2022-11-23T22:28:13.594Z,0.62
2022-11-23T22:38:17.470Z,0.66
2022-11-23T22:48:21.344Z,0.75
2022-11-23T22:58:25.274Z,0.75
2022-11-23T23:08:29.490Z,0.77
2022-11-23T23:18:33.763Z,0.60
2022-11-23T23:28:37.573Z,0.49
2022-11-23T23:38:41.887Z,0.60
2022-11-23T23:48:47.386Z,0.63
2022-11-23T23:58:51.932Z,0.60
